Time;durP1;ratioP1;P1;durP2;ratioP2;P2;SDS_P1;SDS_P2;PMS_P1;PMS_P2;Temp;Humidity;BMP_temperature;BMP_pressure;BME280_temperature;BME280_humidity;BME280_pressure;Samples;Min_cycle;Max_cycle;Signal;HPM_P1;HPM_P2
2022/06/03 00:01:31;;;;;;;;;;;;;;;12.86;48.70;101284.81;5038982;27;97460;-70
2022/06/03 00:04:13;;;;;;;;;;;;;;;12.87;48.82;101284.53;5038699;27;114647;-64
2022/06/03 00:06:45;;;;;;;;;;;;;;;12.87;48.84;101281.00;5038212;27;97702;-70
2022/06/03 00:09:12;;;;;;;;;;;;;;;12.87;49.05;101275.59;5021494;27;122614;-64
2022/06/03 00:12:09;;;;;;;;;;;;;;;12.86;48.82;101276.69;5038668;27;97926;-70
2022/06/03 00:15:02;;;;;;;;;;;;;;;12.84;48.95;101276.13;5039554;27;97575;-64
2022/06/03 00:17:43;;;;;;;;;;;;;;;12.81;49.12;101279.34;5018776;27;99636;-70
2022/06/03 00:20:42;;;;;;;;;;;;;;;12.74;49.14;101282.31;5002906;28;97679;-64
2022/06/03 00:23:19;;;;;;;;;;;;;;;12.70;49.06;101284.72;5024386;27;127199;-64
2022/06/03 00:26:18;;;;;;;;;;;;;;;12.67;49.36;101285.22;5029817;27;97222;-64
2022/06/03 00:29:00;;;;;;;;;;;;;;;12.60;49.68;101291.94;5017229;27;126764;-70
2022/06/03 00:31:46;;;;;;;;;;;;;;;12.53;49.54;101287.56;5002942;28;97480;-64
2022/06/03 00:34:22;;;;;;;;;;;;;;;12.48;49.61;101292.94;5018146;27;97942;-70
2022/06/03 00:37:00;;;;;;;;;;;;;;;12.43;49.67;101284.00;5037205;27;118001;-70
2022/06/03 00:39:33;;;;;;;;;;;;;;;12.39;49.70;101291.81;5018609;28;100801;-64
2022/06/03 00:42:18;;;;;;;;;;;;;;;12.36;49.75;101294.22;5019303;27;97530;-70
2022/06/03 00:44:53;;;;;;;;;;;;;;;12.29;49.83;101297.94;5020231;27;97974;-70
2022/06/03 00:47:22;;;;;;;;;;;;;;;12.24;49.85;101292.50;5038976;27;97371;-70
2022/06/03 00:50:09;;;;;;;;;;;;;;;12.20;49.88;101291.38;5028532;27;97758;-70
2022/06/03 00:52:47;;;;;;;;;;;;;;;12.15;49.63;101282.44;5018329;27;98505;-70
2022/06/03 00:55:50;;;;;;;;;;;;;;;12.09;49.82;101280.75;5030991;27;97944;-70
2022/06/03 00:58:28;;;;;;;;;;;;;;;12.06;49.68;101292.06;5023082;27;97342;-63
2022/06/03 01:01:20;;;;;;;;;;;;;;;12.03;49.47;101288.81;5025841;27;98156;-64
2022/06/03 01:04:02;;;;;;;;;;;;;;;11.98;50.28;101279.84;5000919;28;116199;-70
2022/06/03 01:06:40;;;;;;;;;;;;;;;11.92;50.09;101280.88;5017782;28;109921;-64
2022/06/03 01:09:29;;;;;;;;;;;;;;;11.85;50.23;101275.69;5033577;27;116823;-70
2022/06/03 01:12:20;;;;;;;;;;;;;;;11.84;50.41;101267.84;5039381;27;124838;-64
2022/06/03 01:15:13;;;;;;;;;;;;;;;11.79;50.73;101272.09;5021893;27;125994;-64
2022/06/03 01:18:03;;;;;;;;;;;;;;;11.77;50.39;101268.81;5020782;27;116927;-70
2022/06/03 01:21:00;;;;;;;;;;;;;;;11.74;50.63;101272.03;5039504;27;97371;-70
2022/06/03 01:23:51;;;;;;;;;;;;;;;11.68;50.82;101262.25;5037372;27;99095;-65
2022/06/03 01:26:43;;;;;;;;;;;;;;;11.64;50.60;101266.53;5020881;27;98760;-70
2022/06/03 01:29:52;;;;;;;;;;;;;;;11.59;51.16;101265.66;5022423;27;98235;-64
2022/06/03 01:32:46;;;;;;;;;;;;;;;11.52;50.91;101268.56;4999850;28;115522;-70
2022/06/03 01:35:20;;;;;;;;;;;;;;;11.46;51.46;101262.28;5012502;27;121102;-64
2022/06/03 01:37:53;;;;;;;;;;;;;;;11.39;50.82;101258.97;5015952;27;97618;-69
2022/06/03 01:40:33;;;;;;;;;;;;;;;11.35;50.77;101257.03;5016828;27;98410;-64
2022/06/03 01:43:08;;;;;;;;;;;;;;;11.30;50.85;101255.09;5022694;27;97764;-70
2022/06/03 01:46:02;;;;;;;;;;;;;;;11.26;51.00;101253.97;5037064;27;101019;-70
2022/06/03 01:48:40;;;;;;;;;;;;;;;11.21;51.37;101256.63;5011892;28;104554;-64
2022/06/03 01:51:14;;;;;;;;;;;;;;;11.13;51.34;101257.06;5017982;28;109575;-69
2022/06/03 01:54:15;;;;;;;;;;;;;;;11.07;51.63;101257.00;5028637;27;97240;-70
2022/06/03 01:57:15;;;;;;;;;;;;;;;11.02;51.23;101254.25;5014150;27;97860;-69
2022/06/03 02:00:03;;;;;;;;;;;;;;;10.97;51.47;101250.66;5038419;27;97876;-64
2022/06/03 02:02:59;;;;;;;;;;;;;;;10.91;51.91;101254.34;5036067;27;97555;-64
2022/06/03 02:05:40;;;;;;;;;;;;;;;10.86;51.66;101252.41;4998230;27;97306;-64
2022/06/03 02:08:40;;;;;;;;;;;;;;;10.82;52.00;101249.41;5008618;27;98650;-64
2022/06/03 02:11:15;;;;;;;;;;;;;;;10.79;51.80;101249.09;5038224;27;97462;-70
2022/06/03 02:14:08;;;;;;;;;;;;;;;10.77;52.10;101251.22;5037993;27;97767;-64
2022/06/03 02:17:06;;;;;;;;;;;;;;;10.69;52.41;101249.78;5015392;27;97255;-70
2022/06/03 02:19:50;;;;;;;;;;;;;;;10.64;52.10;101251.56;5019136;27;97697;-63
2022/06/03 02:22:48;;;;;;;;;;;;;;;10.55;53.09;101254.69;5016930;28;98661;-64
2022/06/03 02:25:23;;;;;;;;;;;;;;;10.47;52.27;101244.34;4996421;28;97747;-69
2022/06/03 02:28:13;;;;;;;;;;;;;;;10.46;52.55;101249.97;5002727;27;101024;-70
2022/06/03 02:31:05;;;;;;;;;;;;;;;10.44;52.87;101246.72;5037140;27;98738;-64
2022/06/03 02:34:05;;;;;;;;;;;;;;;10.40;52.20;101246.38;5036448;27;98094;-69
2022/06/03 02:36:40;;;;;;;;;;;;;;;10.34;53.23;101246.56;4996095;28;97416;-70
2022/06/03 02:39:38;;;;;;;;;;;;;;;10.30;52.50;101249.75;5030335;27;97556;-64
2022/06/03 02:42:29;;;;;;;;;;;;;;;10.28;52.68;101251.06;5035211;27;108532;-70
2022/06/03 02:45:07;;;;;;;;;;;;;;;10.28;52.61;101253.75;5023527;27;98576;-70
2022/06/03 02:47:50;;;;;;;;;;;;;;;10.25;53.05;101252.34;5034937;27;97308;-64
2022/06/03 02:50:42;;;;;;;;;;;;;;;10.21;53.08;101256.56;5016605;27;97733;-64
2022/06/03 02:53:39;;;;;;;;;;;;;;;10.15;52.60;101254.06;5023631;27;97602;-70
2022/06/03 02:56:21;;;;;;;;;;;;;;;10.09;52.85;101259.34;5037794;27;97497;-69
2022/06/03 02:58:55;;;;;;;;;;;;;;;10.06;53.27;101251.78;5034910;27;97926;-64
2022/06/03 03:01:48;;;;;;;;;;;;;;;10.06;53.24;101251.78;5032724;27;97145;-64
2022/06/03 03:04:26;;;;;;;;;;;;;;;10.03;52.88;101262.22;5037159;27;98633;-64
2022/06/03 03:07:00;;;;;;;;;;;;;;;10.00;53.10;101258.13;5035661;27;125242;-70
2022/06/03 03:09:49;;;;;;;;;;;;;;;10.00;53.25;101260.81;5020185;27;97000;-63
2022/06/03 03:12:45;;;;;;;;;;;;;;;10.02;52.88;101252.47;5016571;28;97659;-70
2022/06/03 03:15:26;;;;;;;;;;;;;;;10.03;53.25;101259.53;5020172;27;97651;-64
2022/06/03 03:18:18;;;;;;;;;;;;;;;10.06;52.92;101256.31;5022531;27;97578;-64
2022/06/03 03:20:59;;;;;;;;;;;;;;;10.08;52.80;101260.41;5035097;27;98199;-64
2022/06/03 03:23:46;;;;;;;;;;;;;;;10.09;52.79;101261.22;5030693;27;115460;-64
2022/06/03 03:26:32;;;;;;;;;;;;;;;10.06;52.66;101267.94;5020381;27;98913;-63
2022/06/03 03:29:19;;;;;;;;;;;;;;;10.03;53.46;101256.84;5023797;27;98649;-64
2022/06/03 03:32:22;;;;;;;;;;;;;;;10.01;53.29;101265.13;5020769;27;97892;-69
2022/06/03 03:35:12;;;;;;;;;;;;;;;9.96;53.53;101273.16;5013773;27;97431;-69
2022/06/03 03:38:01;;;;;;;;;;;;;;;9.90;53.74;101267.91;5018496;27;97950;-63
2022/06/03 03:40:49;;;;;;;;;;;;;;;9.87;53.62;101271.09;5000698;27;111137;-63
2022/06/03 03:43:37;;;;;;;;;;;;;;;9.83;53.79;101268.09;5040603;27;97981;-69
2022/06/03 03:46:29;;;;;;;;;;;;;;;9.82;53.85;101271.81;5041211;27;97488;-63
2022/06/03 03:49:18;;;;;;;;;;;;;;;9.82;53.44;101280.72;5028480;27;124846;-63
2022/06/03 03:52:20;;;;;;;;;;;;;;;9.82;53.90;101278.03;5023737;27;126741;-69
2022/06/03 03:55:15;;;;;;;;;;;;;;;9.86;54.02;101278.34;5038685;27;97426;-63
2022/06/03 03:58:10;;;;;;;;;;;;;;;9.89;53.75;101271.66;5036685;27;116420;-69
2022/06/03 04:00:42;;;;;;;;;;;;;;;9.92;54.20;101266.59;5002407;27;98569;-63
2022/06/03 04:03:23;;;;;;;;;;;;;;;9.99;54.16;101271.84;5001162;28;100943;-64
2022/06/03 04:06:26;;;;;;;;;;;;;;;10.03;53.72;101279.19;4999934;28;98298;-69
2022/06/03 04:09:15;;;;;;;;;;;;;;;10.10;54.41;101276.34;5024747;27;97744;-63
2022/06/03 04:12:09;;;;;;;;;;;;;;;10.19;53.77;101279.44;5037212;27;98435;-69
2022/06/03 04:14:53;;;;;;;;;;;;;;;10.27;54.24;101279.88;5040711;27;98280;-64
2022/06/03 04:17:50;;;;;;;;;;;;;;;10.36;54.55;101282.16;5023151;27;98216;-69
2022/06/03 04:20:41;;;;;;;;;;;;;;;10.45;53.67;101284.22;5031445;27;97308;-70
2022/06/03 04:23:12;;;;;;;;;;;;;;;10.58;53.91;101288.44;5037505;27;98426;-69
2022/06/03 04:25:53;;;;;;;;;;;;;;;10.71;53.32;101292.66;5038078;27;99748;-70
2022/06/03 04:28:22;;;;;;;;;;;;;;;10.84;53.46;101288.78;5022092;27;122967;-64
2022/06/03 04:31:07;;;;;;;;;;;;;;;10.97;53.86;101281.16;5037033;27;97279;-63
2022/06/03 04:33:45;;;;;;;;;;;;;;;11.10;52.94;101274.56;5016658;27;98172;-64
2022/06/03 04:36:48;;;;;;;;;;;;;;;11.22;53.55;101275.25;5019532;27;98137;-70
2022/06/03 04:39:45;;;;;;;;;;;;;;;11.38;53.59;101270.03;5013780;28;98150;-63
2022/06/03 04:42:38;;;;;;;;;;;;;;;11.51;53.38;101269.63;5015688;27;97801;-70
2022/06/03 04:45:37;;;;;;;;;;;;;;;11.63;53.32;101270.31;5010172;28;126164;-70
2022/06/03 04:48:11;;;;;;;;;;;;;;;11.79;53.03;101265.88;5019149;27;98413;-70
2022/06/03 04:51:00;;;;;;;;;;;;;;;11.92;53.62;101262.78;5013481;27;127927;-70
2022/06/03 04:54:06;;;;;;;;;;;;;;;12.09;53.37;101278.03;5013515;27;97411;-64
2022/06/03 04:57:05;;;;;;;;;;;;;;;12.28;53.23;101277.38;4999670;27;98929;-70
2022/06/03 04:59:57;;;;;;;;;;;;;;;12.49;53.29;101275.63;5013425;27;98444;-63
2022/06/03 05:02:38;;;;;;;;;;;;;;;12.70;53.18;101282.00;5017880;27;98358;-70
2022/06/03 05:05:43;;;;;;;;;;;;;;;12.91;53.18;101276.69;5011853;28;96948;-64
2022/06/03 05:08:30;;;;;;;;;;;;;;;13.14;52.96;101275.44;4999208;27;121079;-70
2022/06/03 05:11:31;;;;;;;;;;;;;;;13.34;53.00;101270.13;5007670;27;97636;-70
2022/06/03 05:14:24;;;;;;;;;;;;;;;13.59;52.65;101273.97;4988006;27;98707;-64
2022/06/03 05:17:17;;;;;;;;;;;;;;;13.84;52.65;101271.31;5015175;27;97651;-70
2022/06/03 05:20:04;;;;;;;;;;;;;;;14.11;52.35;101270.22;5016887;27;97770;-64
2022/06/03 05:22:48;;;;;;;;;;;;;;;14.36;52.39;101274.84;4996485;28;98558;-64
2022/06/03 05:25:36;;;;;;;;;;;;;;;14.61;52.00;101271.31;4995839;28;124439;-70
2022/06/03 05:28:25;;;;;;;;;;;;;;;14.87;51.46;101258.50;5014644;27;97422;-64
2022/06/03 05:30:56;;;;;;;;;;;;;;;15.18;50.87;101264.59;5011782;28;99776;-70
2022/06/03 05:33:47;;;;;;;;;;;;;;;15.45;50.64;101258.75;5013455;27;98320;-64
2022/06/03 05:36:38;;;;;;;;;;;;;;;15.77;50.54;101266.47;4995273;27;127143;-69
2022/06/03 05:39:42;;;;;;;;;;;;;;;16.13;50.14;101266.19;5012281;27;97545;-70
2022/06/03 05:42:24;;;;;;;;;;;;;;;16.53;49.41;101270.44;5014123;27;98177;-64
2022/06/03 05:45:27;;;;;;;;;;;;;;;16.93;49.01;101263.75;5013246;27;97918;-70
2022/06/03 05:48:18;;;;;;;;;;;;;;;17.70;48.28;101254.53;5017642;27;97942;-70
2022/06/03 05:50:47;;;;;;;;;;;;;;;20.91;42.73;101252.28;5013919;27;97775;-70
2022/06/03 05:53:47;;;;;;;;;;;;;;;22.31;41.64;101253.94;5013735;27;98311;-70
2022/06/03 05:56:48;;;;;;;;;;;;;;;23.53;41.14;101259.59;5014129;27;97642;-70
2022/06/03 05:59:32;;;;;;;;;;;;;;;26.80;36.72;101272.13;5014703;27;97370;-64
2022/06/03 06:02:18;;;;;;;;;;;;;;;28.37;34.68;101269.94;5017137;27;97750;-70
2022/06/03 06:05:06;;;;;;;;;;;;;;;28.99;34.38;101269.78;4995574;28;98294;-64
2022/06/03 06:07:40;;;;;;;;;;;;;;;28.34;35.64;101263.16;5014195;27;97689;-70
2022/06/03 06:10:39;;;;;;;;;;;;;;;29.69;33.97;101265.59;5007687;28;108386;-64
2022/06/03 06:13:30;;;;;;;;;;;;;;;32.19;30.18;101257.00;5013738;27;102501;-64
2022/06/03 06:16:12;;;;;;;;;;;;;;;32.24;30.10;101255.81;5012152;28;98311;-70
2022/06/03 06:18:53;;;;;;;;;;;;;;;32.32;30.07;101259.41;5016371;27;98672;-70
2022/06/03 06:21:31;;;;;;;;;;;;;;;33.47;28.44;101247.69;5011110;27;97623;-64
2022/06/03 06:24:15;;;;;;;;;;;;;;;33.43;28.20;101241.31;4995017;28;110993;-64
2022/06/03 06:27:08;;;;;;;;;;;;;;;34.50;27.56;101239.09;5011310;28;98717;-64
2022/06/03 06:30:12;;;;;;;;;;;;;;;34.29;27.11;101223.25;5002566;28;98056;-70
2022/06/03 06:32:43;;;;;;;;;;;;;;;34.77;26.17;101222.44;5016701;27;97517;-70
2022/06/03 06:35:37;;;;;;;;;;;;;;;35.88;24.28;101216.25;5010672;27;110945;-70
2022/06/03 06:38:17;;;;;;;;;;;;;;;34.93;25.41;101197.47;5014176;27;99244;-64
2022/06/03 06:40:46;;;;;;;;;;;;;;;34.38;25.75;101193.59;5010272;28;125068;-70
2022/06/03 06:43:48;;;;;;;;;;;;;;;34.07;26.18;101194.66;5013460;27;98338;-64
2022/06/03 06:46:44;;;;;;;;;;;;;;;33.76;25.79;101185.28;5010254;28;116401;-64
2022/06/03 06:49:23;;;;;;;;;;;;;;;33.30;25.62;101175.94;5014533;27;126487;-64
2022/06/03 06:52:03;;;;;;;;;;;;;;;32.76;24.45;101166.94;5020469;27;103103;-64
2022/06/03 06:54:53;;;;;;;;;;;;;;;32.37;25.08;101164.97;5017553;28;97762;-64
2022/06/03 06:57:54;;;;;;;;;;;;;;;32.13;25.53;101155.44;5020249;27;97749;-64
2022/06/03 07:00:22;;;;;;;;;;;;;;;32.00;25.15;101151.47;4979763;27;98091;-70
2022/06/03 07:03:05;;;;;;;;;;;;;;;32.02;25.16;101152.66;5026147;27;97741;-64
2022/06/03 07:05:59;;;;;;;;;;;;;;;32.12;25.24;101162.22;5022447;27;124888;-70
2022/06/03 07:08:37;;;;;;;;;;;;;;;32.22;24.75;101147.47;5020093;27;114035;-71
2022/06/03 07:11:30;;;;;;;;;;;;;;;32.34;24.96;101153.81;5023984;27;122874;-70
2022/06/03 07:13:58;;;;;;;;;;;;;;;32.50;24.48;101154.22;5019934;27;97711;-70
2022/06/03 07:19:58;;;;;;;;;;;;;;;32.80;23.93;101144.59;5009539;28;97532;-64
2022/06/03 07:22:46;;;;;;;;;;;;;;;32.90;23.80;101141.00;5022030;27;124928;-71
2022/06/03 07:25:30;;;;;;;;;;;;;;;33.03;23.35;101144.94;5018526;28;125447;-64
2022/06/03 07:28:02;;;;;;;;;;;;;;;33.16;23.63;101134.13;5016968;27;97457;-64
2022/06/03 07:30:36;;;;;;;;;;;;;;;33.30;23.84;101128.47;5000040;28;109213;-71
2022/06/03 07:33:33;;;;;;;;;;;;;;;33.46;23.42;101128.78;5018855;27;98003;-64
2022/06/03 07:36:01;;;;;;;;;;;;;;;33.66;22.88;101123.47;5017558;27;98041;-71
2022/06/03 07:38:38;;;;;;;;;;;;;;;33.81;22.59;101126.16;5016227;27;126411;-64
2022/06/03 07:41:29;;;;;;;;;;;;;;;33.98;22.40;101122.44;5004663;27;109100;-70
2022/06/03 07:44:00;;;;;;;;;;;;;;;34.18;22.96;101119.88;5001013;28;123798;-64
2022/06/03 07:46:27;;;;;;;;;;;;;;;34.43;22.67;101109.25;5017183;27;99867;-64
2022/06/03 07:48:53;;;;;;;;;;;;;;;34.69;22.10;101101.38;5016730;27;97834;-72
2022/06/03 07:51:31;;;;;;;;;;;;;;;34.96;21.83;101117.44;5017791;27;117676;-64
2022/06/03 07:54:04;;;;;;;;;;;;;;;35.29;21.81;101105.44;5016246;28;98521;-64
2022/06/03 07:56:31;;;;;;;;;;;;;;;35.67;21.74;101104.47;5017932;28;115676;-64
2022/06/03 07:59:01;;;;;;;;;;;;;;;36.01;21.33;101105.13;5023130;27;118001;-71
2022/06/03 08:01:34;;;;;;;;;;;;;;;36.49;20.90;101097.47;5013910;27;98059;-71
2022/06/03 08:04:00;;;;;;;;;;;;;;;36.93;20.42;101100.97;5016237;27;127171;-71
2022/06/03 08:12:07;;;;;;;;;;;;;;;38.27;19.45;101093.34;5012100;27;97543;-71
2022/06/03 08:14:33;;;;;;;;;;;;;;;38.82;19.15;101095.50;5014496;28;122602;-71
2022/06/03 08:17:01;;;;;;;;;;;;;;;39.33;19.37;101085.06;5012524;28;128251;-64
2022/06/03 08:19:27;;;;;;;;;;;;;;;39.98;19.00;101092.22;5012118;27;125890;-64
2022/06/03 08:21:55;;;;;;;;;;;;;;;40.64;18.41;101087.47;4984948;28;97939;-64
2022/06/03 08:24:23;;;;;;;;;;;;;;;41.15;17.89;101092.78;5012478;28;123786;-65
2022/06/03 08:26:53;;;;;;;;;;;;;;;41.65;17.81;101087.13;5012566;28;97685;-71
2022/06/03 08:29:43;;;;;;;;;;;;;;;42.24;17.55;101087.06;5015971;27;126007;-68
2022/06/03 08:32:14;;;;;;;;;;;;;;;42.60;16.05;101091.88;5021095;27;97625;-72
2022/06/03 08:34:43;;;;;;;;;;;;;;;42.96;17.00;101088.22;5013184;27;98004;-71
2022/06/03 08:37:09;;;;;;;;;;;;;;;43.34;16.78;101079.06;4995423;28;127524;-62
2022/06/03 08:39:35;;;;;;;;;;;;;;;43.64;16.34;101081.28;5012623;27;98041;-62
2022/06/03 08:42:04;;;;;;;;;;;;;;;43.90;16.27;101075.91;5017994;27;116944;-63
2022/06/03 08:44:39;;;;;;;;;;;;;;;44.17;15.83;101072.84;5026638;27;97914;-69
2022/06/03 08:47:14;;;;;;;;;;;;;;;44.62;15.93;101079.38;5014292;27;97889;-69
2022/06/03 08:49:46;;;;;;;;;;;;;;;45.06;15.33;101068.00;5012715;28;97985;-62
2022/06/03 08:52:12;;;;;;;;;;;;;;;45.42;15.25;101067.97;5024492;27;97428;-68
2022/06/03 08:54:45;;;;;;;;;;;;;;;45.78;14.96;101064.59;5012702;27;98973;-71
2022/06/03 08:57:21;;;;;;;;;;;;;;;46.00;14.48;101061.25;5014410;27;98766;-64
2022/06/03 08:59:53;;;;;;;;;;;;;;;46.23;14.68;101052.97;5020968;27;125819;-70
2022/06/03 09:02:23;;;;;;;;;;;;;;;46.40;14.28;101058.81;5018115;27;113075;-64
2022/06/03 09:05:20;;;;;;;;;;;;;;;46.72;14.66;101053.94;5012756;28;122358;-64
2022/06/03 09:07:55;;;;;;;;;;;;;;;46.99;14.53;101044.84;5011429;27;98252;-64
2022/06/03 09:10:27;;;;;;;;;;;;;;;47.16;13.76;101052.72;5010533;28;111755;-70
2022/06/03 09:13:00;;;;;;;;;;;;;;;47.13;14.20;101050.91;5015140;27;97847;-64
2022/06/03 09:15:28;;;;;;;;;;;;;;;47.09;14.01;101044.66;5012700;28;111704;-63
2022/06/03 09:18:17;;;;;;;;;;;;;;;47.08;14.20;101040.22;5015843;27;115387;-64
2022/06/03 09:20:45;;;;;;;;;;;;;;;46.69;13.74;101038.66;4997535;27;97712;-62
2022/06/03 09:23:16;;;;;;;;;;;;;;;45.95;14.13;101016.44;5007762;27;97628;-69
2022/06/03 09:25:44;;;;;;;;;;;;;;;45.26;14.62;101026.66;5015424;27;98596;-62
2022/06/03 09:28:14;;;;;;;;;;;;;;;44.58;14.66;101022.75;5021409;27;125886;-69
2022/06/03 09:30:40;;;;;;;;;;;;;;;43.99;14.75;101014.19;4994334;28;125419;-62
2022/06/03 09:33:07;;;;;;;;;;;;;;;43.57;15.11;101011.53;5016168;27;97664;-62
2022/06/03 09:35:34;;;;;;;;;;;;;;;43.57;15.57;101011.53;5018701;27;98881;-69
2022/06/03 09:38:01;;;;;;;;;;;;;;;43.80;15.33;101002.19;5017987;27;98772;-69
2022/06/03 09:40:35;;;;;;;;;;;;;;;43.97;14.92;101008.22;5013194;27;98111;-62
2022/06/03 09:43:23;;;;;;;;;;;;;;;43.97;14.46;101019.56;5000216;27;98857;-65
2022/06/03 09:45:53;;;;;;;;;;;;;;;44.42;14.52;101014.75;5017608;27;99182;-62
2022/06/03 09:48:24;;;;;;;;;;;;;;;44.70;14.52;101015.22;5001115;27;119887;-62
2022/06/03 09:50:51;;;;;;;;;;;;;;;45.35;14.42;101005.81;5011752;27;97819;-70
2022/06/03 09:53:22;;;;;;;;;;;;;;;46.12;14.46;101010.91;5018673;27;97373;-69
2022/06/03 09:55:53;;;;;;;;;;;;;;;46.91;14.24;101000.19;5013025;27;97846;-70
2022/06/03 09:58:22;;;;;;;;;;;;;;;47.37;13.44;100994.25;5012478;27;97622;-69
2022/06/03 10:00:49;;;;;;;;;;;;;;;47.68;13.36;101001.13;5012174;27;98483;-63
2022/06/03 10:03:15;;;;;;;;;;;;;;;47.88;13.57;100998.06;5011888;28;113563;-70
2022/06/03 10:05:42;;;;;;;;;;;;;;;48.26;13.38;100995.78;5015197;27;128557;-63
2022/06/03 10:08:09;;;;;;;;;;;;;;;48.28;13.25;100984.63;5000100;27;98411;-69
2022/06/03 10:13:20;;;;;;;;;;;;;;;48.45;12.97;100973.22;4995488;28;97960;-69
2022/06/03 10:15:53;;;;;;;;;;;;;;;48.36;13.04;100982.81;5012543;27;117648;-70
2022/06/03 10:18:26;;;;;;;;;;;;;;;48.32;13.04;100970.09;5009009;27;98089;-70
2022/06/03 10:21:14;;;;;;;;;;;;;;;48.43;13.17;100970.13;5013079;27;97356;-69
2022/06/03 10:23:55;;;;;;;;;;;;;;;48.42;13.40;100963.63;4999250;27;98123;-63
2022/06/03 10:26:36;;;;;;;;;;;;;;;48.41;13.50;100964.09;5011032;27;126210;-69
2022/06/03 10:29:29;;;;;;;;;;;;;;;47.56;13.62;100945.28;5011585;27;98531;-70
2022/06/03 10:32:02;;;;;;;;;;;;;;;45.52;14.71;100939.38;5019769;27;97258;-62
2022/06/03 10:34:37;;;;;;;;;;;;;;;45.44;14.82;100938.25;5017073;27;97361;-69
2022/06/03 10:37:05;;;;;;;;;;;;;;;45.90;14.37;100951.66;5013062;27;97955;-63
2022/06/03 10:39:33;;;;;;;;;;;;;;;46.17;14.29;100938.97;5012292;27;98580;-69
2022/06/03 10:41:59;;;;;;;;;;;;;;;46.53;14.43;100944.47;5012072;27;97983;-63
2022/06/03 10:44:33;;;;;;;;;;;;;;;46.77;14.05;100941.25;5012962;28;97528;-70
2022/06/03 10:47:05;;;;;;;;;;;;;;;47.18;15.24;100933.22;5015251;27;98729;-76
2022/06/03 10:49:48;;;;;;;;;;;;;;;47.43;14.68;100928.66;5011940;27;97880;-75
2022/06/03 11:03:28;;;;;;;;;;;;;;;47.83;13.93;100912.41;5009202;27;97573;-68
2022/06/03 11:05:55;;;;;;;;;;;;;;;47.53;14.09;100904.31;5014583;27;102952;-68
2022/06/03 11:08:21;;;;;;;;;;;;;;;45.29;15.12;100903.38;5017409;27;122294;-67
2022/06/03 11:10:55;;;;;;;;;;;;;;;45.40;15.01;100897.84;5012455;27;119748;-67
2022/06/03 11:13:28;;;;;;;;;;;;;;;45.92;14.83;100902.78;4994243;28;98149;-72
2022/06/03 11:15:54;;;;;;;;;;;;;;;45.93;14.50;100901.50;5010900;28;97543;-72
2022/06/03 11:18:24;;;;;;;;;;;;;;;46.19;15.00;100907.97;5013939;27;97582;-72
2022/06/03 11:20:51;;;;;;;;;;;;;;;46.15;14.17;100898.84;5016499;27;118811;-66
2022/06/03 11:23:17;;;;;;;;;;;;;;;46.00;14.53;100893.28;5013523;27;105627;-66
2022/06/03 11:25:49;;;;;;;;;;;;;;;45.75;14.68;100885.53;5010300;28;97905;-66
2022/06/03 11:28:29;;;;;;;;;;;;;;;45.63;14.82;100867.59;5016774;27;98861;-71
2022/06/03 11:31:12;;;;;;;;;;;;;;;45.57;14.98;100871.66;5011514;27;99236;-72
2022/06/03 11:33:46;;;;;;;;;;;;;;;45.33;15.17;100860.50;5009739;28;121458;-66
2022/06/03 11:36:15;;;;;;;;;;;;;;;44.98;15.47;100865.00;5013736;28;97733;-66
2022/06/03 11:39:08;;;;;;;;;;;;;;;44.72;15.17;100862.06;4996241;28;124578;-72
2022/06/03 11:41:39;;;;;;;;;;;;;;;44.14;15.58;100843.88;4990195;27;97594;-72
2022/06/03 11:44:08;;;;;;;;;;;;;;;43.79;16.09;100836.06;5002243;28;98114;-65
2022/06/03 11:46:39;;;;;;;;;;;;;;;43.38;16.65;100818.78;5014059;28;97383;-65
2022/06/03 11:49:05;;;;;;;;;;;;;;;43.47;16.42;100825.66;5016655;27;121096;-66
2022/06/03 11:51:32;;;;;;;;;;;;;;;43.43;16.51;100819.38;4999901;27;99169;-71
2022/06/03 11:53:57;;;;;;;;;;;;;;;42.55;16.37;100815.00;5001347;28;97336;-65
2022/06/03 11:56:25;;;;;;;;;;;;;;;40.76;17.64;100811.03;5015732;27;116260;-65
2022/06/03 11:58:59;;;;;;;;;;;;;;;39.43;18.25;100802.06;5018100;27;125773;-72
2022/06/03 12:01:47;;;;;;;;;;;;;;;39.93;18.25;100805.06;5013500;28;98467;-72
2022/06/03 12:04:31;;;;;;;;;;;;;;;40.70;17.45;100800.34;5011261;27;97749;-66
2022/06/03 12:07:07;;;;;;;;;;;;;;;40.40;17.81;100806.84;5015552;27;97443;-72
2022/06/03 12:09:57;;;;;;;;;;;;;;;41.24;17.30;100806.53;5016702;27;98930;-66
2022/06/03 12:15:34;;;;;;;;;;;;;;;41.87;17.48;100799.25;5015287;28;98153;-66
2022/06/03 12:18:06;;;;;;;;;;;;;;;42.21;16.81;100790.75;5017698;27;97237;-73
2022/06/03 12:20:32;;;;;;;;;;;;;;;42.55;16.76;100792.34;5015072;27;97862;-66
2022/06/03 12:23:13;;;;;;;;;;;;;;;42.75;16.46;100786.88;5022201;27;98238;-73
2022/06/03 12:25:46;;;;;;;;;;;;;;;42.80;16.19;100769.22;5016060;27;100832;-66
2022/06/03 12:28:37;;;;;;;;;;;;;;;42.80;17.07;100774.88;5019817;27;97480;-72
2022/06/03 12:31:21;;;;;;;;;;;;;;;42.84;16.39;100766.19;5014572;27;97957;-72
2022/06/03 12:34:20;;;;;;;;;;;;;;;42.70;16.96;100764.09;5015368;27;98166;-66
2022/06/03 12:36:47;;;;;;;;;;;;;;;42.53;17.19;100755.22;5013461;28;98006;-73
2022/06/03 12:39:19;;;;;;;;;;;;;;;42.53;16.75;100747.53;5019927;27;97564;-72
2022/06/03 12:41:45;;;;;;;;;;;;;;;42.66;16.95;100767.13;5012451;27;97856;-66
2022/06/03 12:44:43;;;;;;;;;;;;;;;42.59;16.42;100748.41;5017919;27;100341;-66
2022/06/03 12:47:18;;;;;;;;;;;;;;;42.36;16.62;100758.47;5018928;27;98607;-72
2022/06/03 12:49:44;;;;;;;;;;;;;;;41.99;16.63;100751.41;5014403;27;97862;-72
2022/06/03 12:52:20;;;;;;;;;;;;;;;41.27;17.22;100745.44;5014905;27;100302;-66
2022/06/03 12:55:09;;;;;;;;;;;;;;;41.07;17.56;100740.28;5014509;27;97444;-72
2022/06/03 12:58:19;;;;;;;;;;;;;;;39.36;18.57;100736.72;5014401;27;98646;-66
2022/06/03 13:00:58;;;;;;;;;;;;;;;39.41;18.86;100736.13;4989671;28;97673;-72
2022/06/03 13:03:23;;;;;;;;;;;;;;;39.76;18.44;100736.81;5008275;28;126408;-72
2022/06/03 13:05:50;;;;;;;;;;;;;;;39.87;18.17;100734.38;5018309;27;102076;-66
2022/06/03 13:08:28;;;;;;;;;;;;;;;39.98;18.47;100736.75;5011958;27;120717;-72
2022/06/03 13:11:00;;;;;;;;;;;;;;;39.72;18.51;100731.31;5013391;27;117044;-66
2022/06/03 13:13:35;;;;;;;;;;;;;;;39.21;19.23;100725.94;5017951;27;98793;-66
2022/06/03 13:16:24;;;;;;;;;;;;;;;38.96;19.01;100717.63;5014254;27;97598;-65
2022/06/03 13:18:52;;;;;;;;;;;;;;;38.91;19.06;100721.03;5013565;27;98029;-72
2022/06/03 13:21:27;;;;;;;;;;;;;;;38.86;19.25;100715.97;5018959;27;97633;-72
2022/06/03 13:23:57;;;;;;;;;;;;;;;38.66;19.32;100719.06;5006959;28;97738;-66
2022/06/03 13:26:23;;;;;;;;;;;;;;;38.12;19.97;100717.22;5006844;28;98501;-72
2022/06/03 13:28:59;;;;;;;;;;;;;;;37.86;19.80;100724.88;5013473;27;98039;-72
2022/06/03 13:31:46;;;;;;;;;;;;;;;37.75;19.99;100722.38;5018152;27;97655;-72
2022/06/03 13:34:15;;;;;;;;;;;;;;;37.66;19.94;100716.66;5003808;27;99143;-66
2022/06/03 13:36:51;;;;;;;;;;;;;;;36.94;20.50;100707.44;5010830;27;98819;-73
2022/06/03 13:39:23;;;;;;;;;;;;;;;35.99;21.12;100715.00;5009944;27;97893;-72
2022/06/03 13:44:38;;;;;;;;;;;;;;;34.92;21.86;100714.38;5008373;28;98006;-65
2022/06/03 13:47:10;;;;;;;;;;;;;;;34.43;21.96;100709.22;5010972;27;98864;-65
2022/06/03 13:49:39;;;;;;;;;;;;;;;33.91;22.28;100706.00;5009580;27;101971;-73
2022/06/03 13:52:08;;;;;;;;;;;;;;;33.38;22.31;100701.91;5015272;27;97547;-72
2022/06/03 13:54:37;;;;;;;;;;;;;;;32.91;23.21;100696.81;4992748;28;98325;-72
2022/06/03 13:57:30;;;;;;;;;;;;;;;32.87;23.21;100689.72;5010935;27;101702;-72
2022/06/03 14:00:26;;;;;;;;;;;;;;;32.87;23.37;100689.72;5007782;27;126830;-65
2022/06/03 14:02:55;;;;;;;;;;;;;;;32.90;23.35;100691.69;5013862;27;97536;-72
2022/06/03 14:05:33;;;;;;;;;;;;;;;32.98;23.33;100690.41;4990856;28;127401;-66
2022/06/03 14:08:18;;;;;;;;;;;;;;;32.94;23.53;100684.09;4998091;27;98440;-65
2022/06/03 14:10:59;;;;;;;;;;;;;;;32.68;23.78;100685.50;5009267;28;98099;-65